createdAt,value
2023-04-08T17:52:25.729Z,100841.00
2023-04-08T17:55:03.527Z,100842.80
2023-04-08T17:57:40.159Z,100844.20
2023-04-08T18:00:21.270Z,100847.80
2023-04-08T18:02:59.503Z,100848.20
2023-04-08T18:05:35.774Z,100852.00
2023-04-08T18:08:13.137Z,100855.40
2023-04-08T18:10:50.410Z,100853.20
2023-04-08T18:13:29.006Z,100855.80
2023-04-08T18:16:05.824Z,100853.00
2023-04-08T18:18:44.134Z,100860.20
2023-04-08T18:21:22.346Z,100855.20
2023-04-08T18:23:59.231Z,100856.20
2023-04-08T18:26:35.973Z,100861.00
2023-04-08T18:29:14.945Z,100866.40
2023-04-08T18:31:51.914Z,100883.80
2023-04-08T18:34:28.792Z,100894.40
2023-04-08T18:37:05.757Z,100890.80
2023-04-08T18:39:45.786Z,100890.00
2023-04-08T18:42:22.389Z,100894.20
2023-04-08T18:44:59.792Z,100895.60
2023-04-08T18:47:37.093Z,100895.60
2023-04-08T18:50:15.679Z,100899.80
2023-04-08T18:52:53.857Z,100903.40
2023-04-08T18:55:30.468Z,100915.00
2023-04-08T18:58:08.872Z,100923.20
2023-04-08T19:00:45.981Z,100923.40
2023-04-08T19:03:23.424Z,100920.20
2023-04-08T19:05:59.509Z,100926.60
2023-04-08T19:08:37.773Z,100937.20
2023-04-08T19:11:15.172Z,100942.20
2023-04-08T19:13:51.946Z,100947.20
2023-04-08T19:16:31.408Z,100943.80
2023-04-08T19:19:07.751Z,100943.40
2023-04-08T19:21:46.384Z,100948.80
2023-04-08T19:24:23.937Z,100951.60
2023-04-08T19:27:00.525Z,100953.40
2023-04-08T19:29:39.247Z,100954.00
2023-04-08T19:32:16.001Z,100957.80
2023-04-08T19:34:53.098Z,100960.00
2023-04-08T19:37:30.124Z,100965.80
2023-04-08T19:40:08.567Z,100963.00
2023-04-08T19:42:50.416Z,100958.80
2023-04-08T19:45:27.569Z,100962.40
2023-04-08T19:48:05.291Z,100966.80
2023-04-08T19:50:46.564Z,100967.80
2023-04-08T19:53:24.732Z,100972.40
2023-04-08T19:56:08.163Z,100981.60
2023-04-08T19:58:44.863Z,100980.20
2023-04-08T20:01:22.364Z,100978.80
2023-04-08T20:03:59.777Z,100972.00
2023-04-08T20:06:37.826Z,100975.60
2023-04-08T20:09:14.095Z,100973.40
2023-04-08T20:11:50.790Z,100979.80
2023-04-08T20:14:29.984Z,100985.80
2023-04-08T20:17:07.138Z,100982.40
2023-04-08T20:19:43.802Z,100981.60
2023-04-08T20:22:21.187Z,100984.00
2023-04-08T20:25:00.684Z,100985.20
2023-04-08T20:27:37.951Z,100986.00
2023-04-08T20:30:19.744Z,100983.40
2023-04-08T20:32:57.292Z,100982.80
2023-04-08T20:35:34.541Z,100986.40
2023-04-08T20:38:12.564Z,100984.40
2023-04-08T20:40:51.532Z,100984.60
2023-04-08T20:43:28.359Z,100987.20
2023-04-08T20:46:05.899Z,100984.20
2023-04-08T20:48:52.577Z,100988.60
2023-04-08T20:51:29.630Z,100988.40
2023-04-08T20:54:06.984Z,100989.40
2023-04-08T20:56:44.512Z,100992.20
2023-04-08T20:59:21.504Z,100992.00
2023-04-08T21:01:59.164Z,100990.60
2023-04-08T21:04:36.855Z,100992.60
2023-04-08T21:07:14.132Z,100988.20
2023-04-08T21:09:56.131Z,100990.20
2023-04-08T21:12:32.743Z,100989.60
2023-04-08T21:15:13.628Z,100991.60
2023-04-08T21:17:52.767Z,100989.40
2023-04-08T21:20:29.954Z,100991.00
2023-04-08T21:23:09.070Z,100993.20
2023-04-08T21:25:51.545Z,100991.00
2023-04-08T21:28:28.692Z,100994.00
2023-04-08T21:31:15.863Z,100991.40
2023-04-08T21:33:52.105Z,100991.20
2023-04-08T21:36:31.236Z,100992.80
2023-04-08T21:39:13.145Z,100996.00
2023-04-08T21:41:49.994Z,100993.40
2023-04-08T21:44:27.638Z,100995.40
2023-04-08T21:47:05.379Z,100993.80
2023-04-08T21:49:42.040Z,100992.80
2023-04-08T21:52:20.909Z,100993.80
2023-04-08T21:55:00.683Z,100994.80
2023-04-08T21:57:37.966Z,100992.20
2023-04-08T22:00:21.865Z,100991.20
2023-04-08T22:02:58.860Z,100991.40
2023-04-08T22:05:37.259Z,100991.20
2023-04-08T22:08:14.851Z,100988.60
2023-04-08T22:10:53.273Z,100992.80
2023-04-08T22:13:30.410Z,100994.80
2023-04-08T22:16:08.115Z,100993.00
2023-04-08T22:18:45.176Z,100989.80
2023-04-08T22:21:22.602Z,100990.40
2023-04-08T22:23:59.269Z,100990.20
2023-04-08T22:26:35.884Z,100990.40
2023-04-08T22:29:13.312Z,100991.60
2023-04-08T22:31:50.792Z,100988.40
2023-04-08T22:34:26.963Z,100984.40
2023-04-08T22:37:04.160Z,100986.40
2023-04-08T22:39:42.702Z,100986.00
2023-04-08T22:42:19.796Z,100984.80
2023-04-08T22:44:56.088Z,100983.80
2023-04-08T22:47:33.260Z,100985.80
2023-04-08T22:50:13.733Z,100985.40
2023-04-08T22:52:51.840Z,100984.40
2023-04-08T22:55:29.292Z,100986.00
2023-04-08T22:58:06.145Z,100981.00
2023-04-08T23:00:42.651Z,100982.40
2023-04-08T23:03:20.099Z,100983.00
2023-04-08T23:05:58.165Z,100988.60
2023-04-08T23:08:34.984Z,100984.00
2023-04-08T23:11:11.998Z,100983.40
2023-04-08T23:13:49.570Z,100981.80
2023-04-08T23:16:26.078Z,100983.40
2023-04-08T23:19:04.161Z,100985.00
2023-04-08T23:21:41.335Z,100985.00
2023-04-08T23:24:19.230Z,100989.20
2023-04-08T23:26:56.327Z,100991.80
2023-04-08T23:29:34.411Z,100993.80
2023-04-08T23:32:10.902Z,100996.60
2023-04-08T23:34:48.749Z,100997.20
2023-04-08T23:37:30.332Z,101000.40
2023-04-08T23:40:08.128Z,101004.00
2023-04-08T23:42:46.426Z,101002.20
2023-04-08T23:45:23.603Z,101000.20
2023-04-08T23:48:02.386Z,101002.80
2023-04-08T23:50:39.966Z,100996.80
2023-04-08T23:53:16.653Z,100997.20
2023-04-08T23:55:53.799Z,100993.60
2023-04-08T23:58:31.560Z,100999.00
